Port Trevorton, Pennsylvania
Current Conditions -  °F | °C
As of 5:53 AM on Saturday 22 Nov 2014 (Local Time) from KSEG Reporting Station
Clear Clear  
Wind Chill: 13°   Ceiling: Unl
Heat Index: 13°   Visibility: 8mi
Dew Point:   Wind: 0mph
Humidity: 84%   Direction: NA
Pressure: 30.46"   Gusts: NA
Location:  40.71°N, 76.87°W
Report Text: KSEG 221053Z AUTO 00000KT 8SM CLR M11/M13 A3046 RMK AO2 SLP323 T11061128
Loading
Personal Weather Stations






























Interactive Weather Map New forecast layout! Learn more

10-Day Weather Forecast

Advertisements
Track Severe Weather on mobile